sensor_id;sensor_type;location;lat;lon;timestamp;P1;durP1;ratioP1;P2;durP2;ratioP2
13252;SDS011;6693;54.370;10.132;2023-07-13T00:00:28;7.90;;;1.92;;
13252;SDS011;6693;54.370;10.132;2023-07-13T00:01:32;7.07;;;1.92;;
13252;SDS011;6693;54.370;10.132;2023-07-13T00:02:33;7.10;;;1.90;;
13252;SDS011;6693;54.370;10.132;2023-07-13T00:03:36;10.30;;;2.50;;
13252;SDS011;6693;54.370;10.132;2023-07-13T00:04:36;7.68;;;2.22;;
13252;SDS011;6693;54.370;10.132;2023-07-13T00:05:43;10.27;;;2.13;;
13252;SDS011;6693;54.370;10.132;2023-07-13T00:06:43;8.50;;;1.90;;
13252;SDS011;6693;54.370;10.132;2023-07-13T00:07:47;6.35;;;2.50;;
13252;SDS011;6693;54.370;10.132;2023-07-13T00:08:48;9.68;;;2.13;;
13252;SDS011;6693;54.370;10.132;2023-07-13T00:09:51;6.47;;;1.95;;
13252;SDS011;6693;54.370;10.132;2023-07-13T00:10:52;5.68;;;1.88;;
13252;SDS011;6693;54.370;10.132;2023-07-13T00:11:56;7.13;;;1.75;;
13252;SDS011;6693;54.370;10.132;2023-07-13T00:12:57;7.55;;;2.00;;
13252;SDS011;6693;54.370;10.132;2023-07-13T00:14:01;7.82;;;1.83;;
13252;SDS011;6693;54.370;10.132;2023-07-13T00:15:04;6.32;;;1.70;;
13252;SDS011;6693;54.370;10.132;2023-07-13T00:16:11;7.50;;;1.90;;
13252;SDS011;6693;54.370;10.132;2023-07-13T00:17:13;6.65;;;1.88;;
13252;SDS011;6693;54.370;10.132;2023-07-13T00:18:14;9.70;;;2.03;;
13252;SDS011;6693;54.370;10.132;2023-07-13T00:19:17;7.63;;;1.83;;
13252;SDS011;6693;54.370;10.132;2023-07-13T00:20:18;10.18;;;1.90;;
13252;SDS011;6693;54.370;10.132;2023-07-13T00:21:24;7.32;;;1.90;;
13252;SDS011;6693;54.370;10.132;2023-07-13T00:22:25;8.00;;;1.85;;
13252;SDS011;6693;54.370;10.132;2023-07-13T00:23:28;7.70;;;1.80;;
13252;SDS011;6693;54.370;10.132;2023-07-13T00:24:29;8.30;;;1.88;;
13252;SDS011;6693;54.370;10.132;2023-07-13T00:25:32;8.35;;;2.63;;
13252;SDS011;6693;54.370;10.132;2023-07-13T00:26:33;8.30;;;2.15;;
13252;SDS011;6693;54.370;10.132;2023-07-13T00:27:36;7.30;;;1.92;;
13252;SDS011;6693;54.370;10.132;2023-07-13T00:28:37;6.72;;;1.98;;
13252;SDS011;6693;54.370;10.132;2023-07-13T00:29:41;5.53;;;1.98;;
13252;SDS011;6693;54.370;10.132;2023-07-13T00:30:42;7.65;;;2.17;;
13252;SDS011;6693;54.370;10.132;2023-07-13T00:31:49;7.68;;;2.10;;
13252;SDS011;6693;54.370;10.132;2023-07-13T00:32:50;7.82;;;2.22;;
13252;SDS011;6693;54.370;10.132;2023-07-13T00:33:53;5.75;;;1.73;;
13252;SDS011;6693;54.370;10.132;2023-07-13T00:34:54;7.72;;;1.90;;
13252;SDS011;6693;54.370;10.132;2023-07-13T00:35:58;8.68;;;2.10;;
13252;SDS011;6693;54.370;10.132;2023-07-13T00:36:58;8.02;;;2.35;;
13252;SDS011;6693;54.370;10.132;2023-07-13T00:37:59;7.55;;;2.05;;
13252;SDS011;6693;54.370;10.132;2023-07-13T00:39:03;9.98;;;2.00;;
13252;SDS011;6693;54.370;10.132;2023-07-13T00:40:04;7.05;;;1.92;;
13252;SDS011;6693;54.370;10.132;2023-07-13T00:41:06;7.57;;;2.33;;
13252;SDS011;6693;54.370;10.132;2023-07-13T00:42:09;6.97;;;1.92;;
13252;SDS011;6693;54.370;10.132;2023-07-13T00:43:12;8.30;;;1.80;;
13252;SDS011;6693;54.370;10.132;2023-07-13T00:44:16;7.32;;;2.00;;
13252;SDS011;6693;54.370;10.132;2023-07-13T00:47:07;6.90;;;2.03;;
13252;SDS011;6693;54.370;10.132;2023-07-13T00:48:08;6.32;;;2.22;;
13252;SDS011;6693;54.370;10.132;2023-07-13T00:49:13;7.30;;;2.03;;
13252;SDS011;6693;54.370;10.132;2023-07-13T00:50:17;7.90;;;2.05;;
13252;SDS011;6693;54.370;10.132;2023-07-13T00:51:26;7.25;;;2.55;;
13252;SDS011;6693;54.370;10.132;2023-07-13T00:52:30;7.28;;;2.20;;
13252;SDS011;6693;54.370;10.132;2023-07-13T00:53:33;6.90;;;2.30;;
13252;SDS011;6693;54.370;10.132;2023-07-13T00:54:35;8.77;;;2.08;;
13252;SDS011;6693;54.370;10.132;2023-07-13T00:55:40;6.15;;;2.20;;
13252;SDS011;6693;54.370;10.132;2023-07-13T00:56:41;7.60;;;2.20;;
13252;SDS011;6693;54.370;10.132;2023-07-13T00:57:46;10.18;;;2.38;;
13252;SDS011;6693;54.370;10.132;2023-07-13T00:58:47;6.55;;;2.10;;
13252;SDS011;6693;54.370;10.132;2023-07-13T00:59:48;7.30;;;2.10;;
13252;SDS011;6693;54.370;10.132;2023-07-13T01:00:55;7.47;;;2.53;;
13252;SDS011;6693;54.370;10.132;2023-07-13T01:01:56;7.13;;;2.45;;
13252;SDS011;6693;54.370;10.132;2023-07-13T01:03:01;8.52;;;1.95;;
13252;SDS011;6693;54.370;10.132;2023-07-13T01:04:04;6.95;;;2.45;;
13252;SDS011;6693;54.370;10.132;2023-07-13T01:05:09;6.35;;;2.05;;
13252;SDS011;6693;54.370;10.132;2023-07-13T01:06:10;7.05;;;2.50;;
13252;SDS011;6693;54.370;10.132;2023-07-13T01:07:13;5.68;;;2.13;;
13252;SDS011;6693;54.370;10.132;2023-07-13T01:08:14;8.23;;;2.47;;
13252;SDS011;6693;54.370;10.132;2023-07-13T01:09:15;7.55;;;2.38;;
13252;SDS011;6693;54.370;10.132;2023-07-13T01:10:21;9.38;;;2.75;;
13252;SDS011;6693;54.370;10.132;2023-07-13T01:11:21;9.93;;;2.63;;
13252;SDS011;6693;54.370;10.132;2023-07-13T01:12:25;8.70;;;2.47;;
13252;SDS011;6693;54.370;10.132;2023-07-13T01:13:25;5.40;;;2.30;;
13252;SDS011;6693;54.370;10.132;2023-07-13T01:14:29;10.48;;;2.40;;
13252;SDS011;6693;54.370;10.132;2023-07-13T01:15:34;6.32;;;2.10;;
13252;SDS011;6693;54.370;10.132;2023-07-13T01:16:39;8.90;;;2.20;;
13252;SDS011;6693;54.370;10.132;2023-07-13T01:17:41;7.75;;;2.70;;
13252;SDS011;6693;54.370;10.132;2023-07-13T01:18:46;8.95;;;2.63;;
13252;SDS011;6693;54.370;10.132;2023-07-13T01:19:47;7.65;;;2.42;;
13252;SDS011;6693;54.370;10.132;2023-07-13T01:20:54;8.80;;;2.33;;
13252;SDS011;6693;54.370;10.132;2023-07-13T01:21:55;6.60;;;2.38;;
13252;SDS011;6693;54.370;10.132;2023-07-13T01:22:58;7.30;;;2.45;;
13252;SDS011;6693;54.370;10.132;2023-07-13T01:24:00;8.75;;;2.78;;
13252;SDS011;6693;54.370;10.132;2023-07-13T01:25:03;7.85;;;2.53;;
13252;SDS011;6693;54.370;10.132;2023-07-13T01:26:04;11.20;;;2.65;;
13252;SDS011;6693;54.370;10.132;2023-07-13T01:27:06;6.82;;;2.92;;
13252;SDS011;6693;54.370;10.132;2023-07-13T01:28:10;7.97;;;2.55;;
13252;SDS011;6693;54.370;10.132;2023-07-13T01:29:11;7.13;;;2.63;;
13252;SDS011;6693;54.370;10.132;2023-07-13T01:30:14;7.15;;;2.38;;
13252;SDS011;6693;54.370;10.132;2023-07-13T01:31:14;7.38;;;2.38;;
13252;SDS011;6693;54.370;10.132;2023-07-13T01:32:19;8.35;;;2.78;;
13252;SDS011;6693;54.370;10.132;2023-07-13T01:33:24;6.28;;;2.30;;
13252;SDS011;6693;54.370;10.132;2023-07-13T01:34:27;7.70;;;2.58;;
13252;SDS011;6693;54.370;10.132;2023-07-13T01:35:28;9.27;;;2.50;;
13252;SDS011;6693;54.370;10.132;2023-07-13T01:36:34;7.63;;;2.65;;
13252;SDS011;6693;54.370;10.132;2023-07-13T01:37:36;7.63;;;2.38;;
13252;SDS011;6693;54.370;10.132;2023-07-13T01:38:39;9.35;;;2.70;;
13252;SDS011;6693;54.370;10.132;2023-07-13T01:39:40;9.07;;;2.60;;
13252;SDS011;6693;54.370;10.132;2023-07-13T01:40:43;7.38;;;2.35;;
13252;SDS011;6693;54.370;10.132;2023-07-13T01:41:44;8.52;;;4.47;;
13252;SDS011;6693;54.370;10.132;2023-07-13T01:42:47;10.68;;;4.82;;
13252;SDS011;6693;54.370;10.132;2023-07-13T01:43:48;11.10;;;2.75;;
13252;SDS011;6693;54.370;10.132;2023-07-13T01:44:51;8.23;;;2.60;;
13252;SDS011;6693;54.370;10.132;2023-07-13T01:45:52;7.90;;;2.60;;
13252;SDS011;6693;54.370;10.132;2023-07-13T01:46:53;6.60;;;2.35;;
13252;SDS011;6693;54.370;10.132;2023-07-13T01:47:56;11.05;;;3.17;;
13252;SDS011;6693;54.370;10.132;2023-07-13T01:48:58;8.23;;;2.50;;
13252;SDS011;6693;54.370;10.132;2023-07-13T01:50:01;6.80;;;2.50;;
13252;SDS011;6693;54.370;10.132;2023-07-13T01:51:01;7.35;;;2.70;;
13252;SDS011;6693;54.370;10.132;2023-07-13T01:52:07;8.95;;;2.53;;
13252;SDS011;6693;54.370;10.132;2023-07-13T01:53:08;8.65;;;2.85;;
13252;SDS011;6693;54.370;10.132;2023-07-13T01:54:11;6.80;;;2.28;;
13252;SDS011;6693;54.370;10.132;2023-07-13T01:55:12;8.60;;;2.70;;
13252;SDS011;6693;54.370;10.132;2023-07-13T01:56:15;8.20;;;2.38;;
13252;SDS011;6693;54.370;10.132;2023-07-13T01:57:16;10.02;;;2.75;;
13252;SDS011;6693;54.370;10.132;2023-07-13T01:58:19;7.95;;;2.65;;
13252;SDS011;6693;54.370;10.132;2023-07-13T01:59:20;8.52;;;3.58;;
13252;SDS011;6693;54.370;10.132;2023-07-13T02:00:23;9.55;;;2.40;;
13252;SDS011;6693;54.370;10.132;2023-07-13T02:01:24;9.07;;;2.58;;
13252;SDS011;6693;54.370;10.132;2023-07-13T02:02:27;7.75;;;3.08;;
13252;SDS011;6693;54.370;10.132;2023-07-13T02:03:28;8.68;;;2.72;;
13252;SDS011;6693;54.370;10.132;2023-07-13T02:04:31;7.93;;;3.17;;
13252;SDS011;6693;54.370;10.132;2023-07-13T02:05:32;9.07;;;2.88;;
13252;SDS011;6693;54.370;10.132;2023-07-13T02:06:35;7.80;;;2.33;;
13252;SDS011;6693;54.370;10.132;2023-07-13T02:07:39;6.30;;;2.00;;
13252;SDS011;6693;54.370;10.132;2023-07-13T02:08:40;6.68;;;1.92;;
13252;SDS011;6693;54.370;10.132;2023-07-13T02:09:44;6.20;;;2.03;;
13252;SDS011;6693;54.370;10.132;2023-07-13T02:10:44;8.73;;;2.40;;
13252;SDS011;6693;54.370;10.132;2023-07-13T02:11:48;8.23;;;2.72;;
13252;SDS011;6693;54.370;10.132;2023-07-13T02:12:48;8.18;;;2.30;;
13252;SDS011;6693;54.370;10.132;2023-07-13T02:13:53;7.43;;;2.58;;
13252;SDS011;6693;54.370;10.132;2023-07-13T02:14:53;5.35;;;2.30;;
13252;SDS011;6693;54.370;10.132;2023-07-13T02:15:57;7.65;;;2.38;;
13252;SDS011;6693;54.370;10.132;2023-07-13T02:16:57;8.00;;;2.20;;
13252;SDS011;6693;54.370;10.132;2023-07-13T02:18:00;8.60;;;2.30;;
13252;SDS011;6693;54.370;10.132;2023-07-13T02:19:01;6.65;;;2.25;;
13252;SDS011;6693;54.370;10.132;2023-07-13T02:20:06;6.80;;;2.42;;
13252;SDS011;6693;54.370;10.132;2023-07-13T02:22:11;8.52;;;1.92;;
13252;SDS011;6693;54.370;10.132;2023-07-13T02:23:15;11.57;;;2.15;;
13252;SDS011;6693;54.370;10.132;2023-07-13T02:24:18;6.90;;;2.10;;
13252;SDS011;6693;54.370;10.132;2023-07-13T02:25:21;6.65;;;2.30;;
13252;SDS011;6693;54.370;10.132;2023-07-13T02:26:25;7.38;;;2.03;;
13252;SDS011;6693;54.370;10.132;2023-07-13T02:27:26;9.75;;;2.60;;
13252;SDS011;6693;54.370;10.132;2023-07-13T02:28:29;8.57;;;2.50;;
13252;SDS011;6693;54.370;10.132;2023-07-13T02:29:30;5.85;;;2.47;;
13252;SDS011;6693;54.370;10.132;2023-07-13T02:30:33;6.13;;;2.08;;
13252;SDS011;6693;54.370;10.132;2023-07-13T02:31:34;7.45;;;2.05;;
13252;SDS011;6693;54.370;10.132;2023-07-13T02:32:38;9.52;;;2.30;;
13252;SDS011;6693;54.370;10.132;2023-07-13T02:33:39;6.13;;;1.95;;
13252;SDS011;6693;54.370;10.132;2023-07-13T02:34:42;6.70;;;2.03;;
13252;SDS011;6693;54.370;10.132;2023-07-13T02:35:42;6.70;;;2.15;;
13252;SDS011;6693;54.370;10.132;2023-07-13T02:36:43;6.80;;;2.45;;
13252;SDS011;6693;54.370;10.132;2023-07-13T02:37:46;7.22;;;2.22;;
13252;SDS011;6693;54.370;10.132;2023-07-13T02:38:49;6.15;;;2.35;;
13252;SDS011;6693;54.370;10.132;2023-07-13T02:39:53;5.72;;;2.05;;
13252;SDS011;6693;54.370;10.132;2023-07-13T02:40:54;7.60;;;2.33;;
13252;SDS011;6693;54.370;10.132;2023-07-13T02:41:57;7.88;;;2.45;;
13252;SDS011;6693;54.370;10.132;2023-07-13T02:42:58;5.45;;;2.03;;
13252;SDS011;6693;54.370;10.132;2023-07-13T02:44:02;7.43;;;2.47;;
13252;SDS011;6693;54.370;10.132;2023-07-13T02:45:04;5.63;;;2.08;;
13252;SDS011;6693;54.370;10.132;2023-07-13T02:46:08;6.55;;;2.20;;
13252;SDS011;6693;54.370;10.132;2023-07-13T02:47:08;5.88;;;1.98;;
13252;SDS011;6693;54.370;10.132;2023-07-13T02:48:13;6.50;;;2.00;;
13252;SDS011;6693;54.370;10.132;2023-07-13T02:49:14;5.85;;;2.00;;
13252;SDS011;6693;54.370;10.132;2023-07-13T02:50:17;6.05;;;2.00;;
13252;SDS011;6693;54.370;10.132;2023-07-13T02:51:18;5.20;;;1.92;;
13252;SDS011;6693;54.370;10.132;2023-07-13T02:52:21;6.25;;;1.90;;
13252;SDS011;6693;54.370;10.132;2023-07-13T02:53:22;4.78;;;1.77;;
13252;SDS011;6693;54.370;10.132;2023-07-13T02:54:27;5.60;;;1.83;;
13252;SDS011;6693;54.370;10.132;2023-07-13T02:55:28;6.30;;;2.10;;
13252;SDS011;6693;54.370;10.132;2023-07-13T02:56:33;6.93;;;2.17;;
13252;SDS011;6693;54.370;10.132;2023-07-13T02:57:34;5.15;;;1.85;;
13252;SDS011;6693;54.370;10.132;2023-07-13T02:58:37;6.32;;;2.78;;
13252;SDS011;6693;54.370;10.132;2023-07-13T03:00:42;8.98;;;2.25;;
13252;SDS011;6693;54.370;10.132;2023-07-13T03:01:43;6.78;;;2.22;;
13252;SDS011;6693;54.370;10.132;2023-07-13T03:02:46;8.23;;;1.67;;
13252;SDS011;6693;54.370;10.132;2023-07-13T03:03:47;6.53;;;1.88;;
13252;SDS011;6693;54.370;10.132;2023-07-13T03:04:50;8.35;;;2.17;;
13252;SDS011;6693;54.370;10.132;2023-07-13T03:05:57;8.30;;;2.20;;
13252;SDS011;6693;54.370;10.132;2023-07-13T03:07:02;4.95;;;2.22;;
13252;SDS011;6693;54.370;10.132;2023-07-13T03:08:03;5.93;;;2.30;;
13252;SDS011;6693;54.370;10.132;2023-07-13T03:09:07;6.10;;;2.20;;
13252;SDS011;6693;54.370;10.132;2023-07-13T03:10:11;7.43;;;2.50;;
13252;SDS011;6693;54.370;10.132;2023-07-13T03:11:14;6.72;;;2.80;;
13252;SDS011;6693;54.370;10.132;2023-07-13T03:12:17;7.10;;;2.60;;
13252;SDS011;6693;54.370;10.132;2023-07-13T03:13:20;7.97;;;2.42;;
13252;SDS011;6693;54.370;10.132;2023-07-13T03:14:21;6.93;;;2.58;;
13252;SDS011;6693;54.370;10.132;2023-07-13T03:15:24;7.78;;;2.72;;
13252;SDS011;6693;54.370;10.132;2023-07-13T03:16:25;7.50;;;2.78;;
13252;SDS011;6693;54.370;10.132;2023-07-13T03:17:28;7.32;;;3.05;;
13252;SDS011;6693;54.370;10.132;2023-07-13T03:18:29;6.80;;;2.80;;
13252;SDS011;6693;54.370;10.132;2023-07-13T03:19:32;6.78;;;3.00;;
13252;SDS011;6693;54.370;10.132;2023-07-13T03:20:33;5.68;;;2.38;;
13252;SDS011;6693;54.370;10.132;2023-07-13T03:21:36;7.90;;;3.03;;
13252;SDS011;6693;54.370;10.132;2023-07-13T03:22:37;6.63;;;2.85;;
13252;SDS011;6693;54.370;10.132;2023-07-13T03:23:40;7.38;;;3.50;;
13252;SDS011;6693;54.370;10.132;2023-07-13T03:24:41;8.60;;;3.50;;
13252;SDS011;6693;54.370;10.132;2023-07-13T03:25:46;7.57;;;3.25;;
13252;SDS011;6693;54.370;10.132;2023-07-13T03:26:47;7.57;;;3.13;;
13252;SDS011;6693;54.370;10.132;2023-07-13T03:27:50;6.60;;;3.20;;
13252;SDS011;6693;54.370;10.132;2023-07-13T03:28:51;7.97;;;3.33;;
13252;SDS011;6693;54.370;10.132;2023-07-13T03:29:54;10.00;;;3.33;;
13252;SDS011;6693;54.370;10.132;2023-07-13T03:30:58;10.07;;;3.97;;
13252;SDS011;6693;54.370;10.132;2023-07-13T03:32:00;7.25;;;3.40;;
13252;SDS011;6693;54.370;10.132;2023-07-13T03:33:04;8.90;;;3.45;;
13252;SDS011;6693;54.370;10.132;2023-07-13T03:34:05;8.10;;;3.10;;
13252;SDS011;6693;54.370;10.132;2023-07-13T03:35:09;9.38;;;3.65;;
13252;SDS011;6693;54.370;10.132;2023-07-13T03:36:11;8.50;;;3.50;;
13252;SDS011;6693;54.370;10.132;2023-07-13T03:37:16;8.57;;;3.45;;
13252;SDS011;6693;54.370;10.132;2023-07-13T03:38:16;9.45;;;3.80;;
13252;SDS011;6693;54.370;10.132;2023-07-13T03:39:20;7.78;;;3.40;;
13252;SDS011;6693;54.370;10.132;2023-07-13T03:40:20;8.13;;;4.43;;
13252;SDS011;6693;54.370;10.132;2023-07-13T03:41:27;7.72;;;3.28;;
13252;SDS011;6693;54.370;10.132;2023-07-13T03:42:28;9.93;;;3.45;;
13252;SDS011;6693;54.370;10.132;2023-07-13T03:43:31;8.85;;;3.70;;
13252;SDS011;6693;54.370;10.132;2023-07-13T03:44:32;8.80;;;3.65;;
13252;SDS011;6693;54.370;10.132;2023-07-13T03:45:37;8.32;;;3.45;;
13252;SDS011;6693;54.370;10.132;2023-07-13T03:46:38;8.30;;;3.70;;
13252;SDS011;6693;54.370;10.132;2023-07-13T03:47:41;8.32;;;3.63;;
13252;SDS011;6693;54.370;10.132;2023-07-13T03:48:43;8.40;;;3.78;;
13252;SDS011;6693;54.370;10.132;2023-07-13T03:49:47;9.05;;;3.95;;
13252;SDS011;6693;54.370;10.132;2023-07-13T03:50:48;8.75;;;3.90;;
13252;SDS011;6693;54.370;10.132;2023-07-13T03:51:49;7.75;;;3.47;;
13252;SDS011;6693;54.370;10.132;2023-07-13T03:52:52;9.27;;;4.05;;
13252;SDS011;6693;54.370;10.132;2023-07-13T03:53:53;8.43;;;3.60;;
13252;SDS011;6693;54.370;10.132;2023-07-13T03:54:53;8.40;;;3.80;;
13252;SDS011;6693;54.370;10.132;2023-07-13T03:55:56;9.88;;;4.30;;
13252;SDS011;6693;54.370;10.132;2023-07-13T03:57:00;11.30;;;3.70;;
13252;SDS011;6693;54.370;10.132;2023-07-13T03:59:26;7.57;;;3.30;;
13252;SDS011;6693;54.370;10.132;2023-07-13T04:00:29;8.73;;;3.90;;
13252;SDS011;6693;54.370;10.132;2023-07-13T04:01:30;8.93;;;3.83;;
13252;SDS011;6693;54.370;10.132;2023-07-13T04:02:33;9.73;;;3.63;;
13252;SDS011;6693;54.370;10.132;2023-07-13T04:03:34;7.70;;;3.47;;
13252;SDS011;6693;54.370;10.132;2023-07-13T04:04:35;8.93;;;4.20;;
13252;SDS011;6693;54.370;10.132;2023-07-13T04:05:40;9.52;;;3.70;;
13252;SDS011;6693;54.370;10.132;2023-07-13T04:06:41;9.32;;;3.92;;
13252;SDS011;6693;54.370;10.132;2023-07-13T04:07:44;8.15;;;3.97;;
13252;SDS011;6693;54.370;10.132;2023-07-13T04:08:45;8.30;;;3.88;;
13252;SDS011;6693;54.370;10.132;2023-07-13T04:09:45;9.27;;;3.92;;
13252;SDS011;6693;54.370;10.132;2023-07-13T04:10:49;8.00;;;3.65;;
13252;SDS011;6693;54.370;10.132;2023-07-13T04:11:50;9.77;;;4.20;;
13252;SDS011;6693;54.370;10.132;2023-07-13T04:12:56;11.27;;;4.13;;
13252;SDS011;6693;54.370;10.132;2023-07-13T04:13:59;8.60;;;4.22;;
13252;SDS011;6693;54.370;10.132;2023-07-13T04:15:03;9.55;;;4.55;;
13252;SDS011;6693;54.370;10.132;2023-07-13T04:16:04;10.98;;;3.92;;
13252;SDS011;6693;54.370;10.132;2023-07-13T04:17:04;9.65;;;3.80;;
13252;SDS011;6693;54.370;10.132;2023-07-13T04:18:08;9.27;;;3.63;;
13252;SDS011;6693;54.370;10.132;2023-07-13T04:19:09;8.77;;;4.07;;
13252;SDS011;6693;54.370;10.132;2023-07-13T04:20:12;10.18;;;4.00;;
13252;SDS011;6693;54.370;10.132;2023-07-13T04:21:13;9.43;;;4.57;;
13252;SDS011;6693;54.370;10.132;2023-07-13T04:22:17;8.27;;;4.32;;
13252;SDS011;6693;54.370;10.132;2023-07-13T04:23:18;9.93;;;4.30;;
13252;SDS011;6693;54.370;10.132;2023-07-13T04:24:21;9.73;;;4.60;;
13252;SDS011;6693;54.370;10.132;2023-07-13T04:25:22;8.48;;;4.03;;
13252;SDS011;6693;54.370;10.132;2023-07-13T04:26:25;9.80;;;4.40;;
13252;SDS011;6693;54.370;10.132;2023-07-13T04:27:26;12.70;;;4.95;;
13252;SDS011;6693;54.370;10.132;2023-07-13T04:28:32;8.10;;;4.25;;
13252;SDS011;6693;54.370;10.132;2023-07-13T04:29:33;11.68;;;4.63;;
13252;SDS011;6693;54.370;10.132;2023-07-13T04:30:36;11.05;;;4.63;;
13252;SDS011;6693;54.370;10.132;2023-07-13T04:31:37;11.52;;;4.45;;
13252;SDS011;6693;54.370;10.132;2023-07-13T04:32:40;8.93;;;4.45;;
13252;SDS011;6693;54.370;10.132;2023-07-13T04:33:41;8.82;;;4.32;;
13252;SDS011;6693;54.370;10.132;2023-07-13T04:34:42;11.25;;;4.43;;
13252;SDS011;6693;54.370;10.132;2023-07-13T04:35:45;8.90;;;4.13;;
13252;SDS011;6693;54.370;10.132;2023-07-13T04:36:46;11.95;;;4.25;;
13252;SDS011;6693;54.370;10.132;2023-07-13T04:37:50;8.27;;;4.13;;
13252;SDS011;6693;54.370;10.132;2023-07-13T04:38:51;8.93;;;4.53;;
13252;SDS011;6693;54.370;10.132;2023-07-13T04:39:54;9.98;;;4.07;;
13252;SDS011;6693;54.370;10.132;2023-07-13T04:40:55;8.27;;;3.95;;
13252;SDS011;6693;54.370;10.132;2023-07-13T04:41:58;10.65;;;3.88;;
13252;SDS011;6693;54.370;10.132;2023-07-13T04:42:59;12.23;;;7.43;;
13252;SDS011;6693;54.370;10.132;2023-07-13T04:44:05;8.68;;;4.20;;
13252;SDS011;6693;54.370;10.132;2023-07-13T04:45:06;10.80;;;4.13;;
13252;SDS011;6693;54.370;10.132;2023-07-13T04:46:11;9.23;;;3.72;;
13252;SDS011;6693;54.370;10.132;2023-07-13T04:47:13;10.90;;;4.10;;
13252;SDS011;6693;54.370;10.132;2023-07-13T04:48:16;10.57;;;3.85;;
13252;SDS011;6693;54.370;10.132;2023-07-13T04:49:17;7.95;;;3.65;;
13252;SDS011;6693;54.370;10.132;2023-07-13T04:50:20;10.18;;;3.80;;
13252;SDS011;6693;54.370;10.132;2023-07-13T04:51:23;7.07;;;4.30;;
13252;SDS011;6693;54.370;10.132;2023-07-13T04:52:26;12.07;;;3.70;;
13252;SDS011;6693;54.370;10.132;2023-07-13T04:53:27;9.23;;;3.60;;
13252;SDS011;6693;54.370;10.132;2023-07-13T04:54:28;8.20;;;3.63;;
13252;SDS011;6693;54.370;10.132;2023-07-13T04:55:31;10.27;;;3.67;;
13252;SDS011;6693;54.370;10.132;2023-07-13T04:56:32;9.50;;;3.50;;
13252;SDS011;6693;54.370;10.132;2023-07-13T04:57:35;9.63;;;3.65;;
13252;SDS011;6693;54.370;10.132;2023-07-13T04:58:36;9.07;;;3.25;;
13252;SDS011;6693;54.370;10.132;2023-07-13T04:59:42;10.25;;;3.97;;
13252;SDS011;6693;54.370;10.132;2023-07-13T05:00:43;9.07;;;3.28;;
13252;SDS011;6693;54.370;10.132;2023-07-13T05:01:47;9.35;;;3.30;;
13252;SDS011;6693;54.370;10.132;2023-07-13T05:02:47;8.02;;;3.50;;
13252;SDS011;6693;54.370;10.132;2023-07-13T05:03:51;10.32;;;3.50;;
13252;SDS011;6693;54.370;10.132;2023-07-13T05:04:52;9.35;;;3.40;;
13252;SDS011;6693;54.370;10.132;2023-07-13T05:05:55;8.00;;;3.20;;
13252;SDS011;6693;54.370;10.132;2023-07-13T05:06:56;7.45;;;2.83;;
13252;SDS011;6693;54.370;10.132;2023-07-13T05:07:59;8.55;;;3.60;;
13252;SDS011;6693;54.370;10.132;2023-07-13T05:09:00;9.80;;;3.45;;
13252;SDS011;6693;54.370;10.132;2023-07-13T05:10:04;7.88;;;3.40;;
13252;SDS011;6693;54.370;10.132;2023-07-13T05:11:05;7.85;;;2.90;;
13252;SDS011;6693;54.370;10.132;2023-07-13T05:12:09;8.23;;;3.10;;
13252;SDS011;6693;54.370;10.132;2023-07-13T05:13:10;7.43;;;2.80;;
13252;SDS011;6693;54.370;10.132;2023-07-13T05:14:13;9.57;;;3.22;;
13252;SDS011;6693;54.370;10.132;2023-07-13T05:15:22;8.13;;;2.90;;
13252;SDS011;6693;54.370;10.132;2023-07-13T05:16:26;9.13;;;3.22;;
13252;SDS011;6693;54.370;10.132;2023-07-13T05:17:27;7.90;;;3.08;;
13252;SDS011;6693;54.370;10.132;2023-07-13T05:18:30;8.77;;;3.03;;
13252;SDS011;6693;54.370;10.132;2023-07-13T05:19:31;9.02;;;3.17;;
13252;SDS011;6693;54.370;10.132;2023-07-13T05:20:34;6.68;;;2.72;;
13252;SDS011;6693;54.370;10.132;2023-07-13T05:21:35;10.25;;;3.13;;
13252;SDS011;6693;54.370;10.132;2023-07-13T05:22:39;7.40;;;3.03;;
13252;SDS011;6693;54.370;10.132;2023-07-13T05:23:39;8.80;;;3.08;;
13252;SDS011;6693;54.370;10.132;2023-07-13T05:24:44;7.43;;;2.72;;
13252;SDS011;6693;54.370;10.132;2023-07-13T05:25:47;8.30;;;3.08;;
13252;SDS011;6693;54.370;10.132;2023-07-13T05:26:50;7.63;;;3.28;;
13252;SDS011;6693;54.370;10.132;2023-07-13T05:27:50;7.38;;;3.30;;
13252;SDS011;6693;54.370;10.132;2023-07-13T05:28:54;7.07;;;2.72;;
13252;SDS011;6693;54.370;10.132;2023-07-13T05:29:54;8.52;;;2.95;;
13252;SDS011;6693;54.370;10.132;2023-07-13T05:31:00;7.60;;;3.10;;
13252;SDS011;6693;54.370;10.132;2023-07-13T05:32:01;8.52;;;3.28;;
13252;SDS011;6693;54.370;10.132;2023-07-13T05:33:04;9.57;;;3.53;;
13252;SDS011;6693;54.370;10.132;2023-07-13T05:34:05;7.20;;;2.90;;
13252;SDS011;6693;54.370;10.132;2023-07-13T05:35:08;7.75;;;2.88;;
13252;SDS011;6693;54.370;10.132;2023-07-13T05:36:08;7.50;;;3.00;;
13252;SDS011;6693;54.370;10.132;2023-07-13T05:37:12;9.90;;;3.35;;
13252;SDS011;6693;54.370;10.132;2023-07-13T05:38:12;7.68;;;2.80;;
13252;SDS011;6693;54.370;10.132;2023-07-13T05:39:16;9.55;;;2.88;;
13252;SDS011;6693;54.370;10.132;2023-07-13T05:40:17;6.68;;;2.97;;
13252;SDS011;6693;54.370;10.132;2023-07-13T05:41:20;9.25;;;3.33;;
13252;SDS011;6693;54.370;10.132;2023-07-13T05:42:20;8.52;;;3.00;;
13252;SDS011;6693;54.370;10.132;2023-07-13T05:43:24;7.03;;;3.20;;
13252;SDS011;6693;54.370;10.132;2023-07-13T05:44:24;7.95;;;3.20;;
13252;SDS011;6693;54.370;10.132;2023-07-13T05:45:28;8.07;;;3.05;;
13252;SDS011;6693;54.370;10.132;2023-07-13T05:46:31;10.65;;;3.55;;
13252;SDS011;6693;54.370;10.132;2023-07-13T05:47:34;7.40;;;2.80;;
13252;SDS011;6693;54.370;10.132;2023-07-13T05:48:35;6.68;;;3.15;;
13252;SDS011;6693;54.370;10.132;2023-07-13T05:49:38;7.43;;;3.00;;
13252;SDS011;6693;54.370;10.132;2023-07-13T05:50:39;7.85;;;3.10;;
13252;SDS011;6693;54.370;10.132;2023-07-13T05:51:40;6.47;;;2.72;;
13252;SDS011;6693;54.370;10.132;2023-07-13T05:52:43;8.07;;;2.75;;
13252;SDS011;6693;54.370;10.132;2023-07-13T05:53:43;8.85;;;3.00;;
13252;SDS011;6693;54.370;10.132;2023-07-13T05:54:44;10.93;;;3.15;;
13252;SDS011;6693;54.370;10.132;2023-07-13T05:55:47;8.82;;;2.95;;
13252;SDS011;6693;54.370;10.132;2023-07-13T05:56:50;7.05;;;2.95;;
13252;SDS011;6693;54.370;10.132;2023-07-13T05:57:50;11.48;;;3.42;;
13252;SDS011;6693;54.370;10.132;2023-07-13T05:58:53;9.18;;;3.20;;
13252;SDS011;6693;54.370;10.132;2023-07-13T05:59:54;8.10;;;3.17;;
13252;SDS011;6693;54.370;10.132;2023-07-13T06:01:01;10.88;;;3.78;;
13252;SDS011;6693;54.370;10.132;2023-07-13T06:02:07;10.98;;;3.72;;
13252;SDS011;6693;54.370;10.132;2023-07-13T06:03:11;9.98;;;4.25;;
13252;SDS011;6693;54.370;10.132;2023-07-13T06:04:12;9.82;;;4.68;;
13252;SDS011;6693;54.370;10.132;2023-07-13T06:05:15;9.15;;;3.25;;
13252;SDS011;6693;54.370;10.132;2023-07-13T06:06:16;9.00;;;3.40;;
13252;SDS011;6693;54.370;10.132;2023-07-13T06:07:17;9.32;;;4.00;;
13252;SDS011;6693;54.370;10.132;2023-07-13T06:08:20;12.45;;;3.60;;
13252;SDS011;6693;54.370;10.132;2023-07-13T06:09:21;7.35;;;3.17;;
13252;SDS011;6693;54.370;10.132;2023-07-13T06:10:24;8.48;;;3.38;;
13252;SDS011;6693;54.370;10.132;2023-07-13T06:11:25;10.82;;;3.97;;
13252;SDS011;6693;54.370;10.132;2023-07-13T06:12:30;9.10;;;2.90;;
13252;SDS011;6693;54.370;10.132;2023-07-13T06:13:30;8.73;;;2.90;;
13252;SDS011;6693;54.370;10.132;2023-07-13T06:14:33;8.73;;;2.80;;
13252;SDS011;6693;54.370;10.132;2023-07-13T06:15:34;7.95;;;3.10;;
13252;SDS011;6693;54.370;10.132;2023-07-13T06:16:39;9.23;;;3.03;;
13252;SDS011;6693;54.370;10.132;2023-07-13T06:17:42;8.55;;;3.47;;
13252;SDS011;6693;54.370;10.132;2023-07-13T06:18:46;7.28;;;3.75;;
13252;SDS011;6693;54.370;10.132;2023-07-13T06:19:47;9.18;;;4.55;;
13252;SDS011;6693;54.370;10.132;2023-07-13T06:20:50;10.95;;;3.83;;